createdAt,value
2023-01-29T00:02:26.182Z,101845.44
2023-01-29T00:04:57.141Z,101850.72
2023-01-29T00:07:26.059Z,101842.88
2023-01-29T00:09:53.151Z,101847.53
2023-01-29T00:12:20.264Z,101843.63
2023-01-29T00:14:49.428Z,101848.22
2023-01-29T00:17:16.601Z,101836.19
2023-01-29T00:19:43.681Z,101831.63
2023-01-29T00:22:10.821Z,101832.94
2023-01-29T00:24:37.918Z,101831.06
2023-01-29T00:27:06.069Z,101829.22
2023-01-29T00:29:33.247Z,101828.44
2023-01-29T00:32:02.907Z,101823.84
2023-01-29T00:34:32.160Z,101817.56
2023-01-29T00:37:04.898Z,101823.47
2023-01-29T00:39:47.574Z,101820.38
2023-01-29T00:42:53.593Z,101818.09
2023-01-29T00:45:20.869Z,101827.50
2023-01-29T00:47:50.176Z,101819.84
2023-01-29T00:50:20.001Z,101827.56
2023-01-29T00:52:51.855Z,101829.81
2023-01-29T00:55:19.211Z,101819.47
2023-01-29T00:57:46.878Z,101827.53
2023-01-29T01:00:18.410Z,101822.31
2023-01-29T01:03:04.366Z,101813.63
2023-01-29T01:05:34.493Z,101818.44
2023-01-29T01:08:01.559Z,101815.94
2023-01-29T01:10:32.785Z,101811.28
2023-01-29T01:13:06.799Z,101809.88
2023-01-29T01:15:40.291Z,101801.75
2023-01-29T01:18:07.716Z,101807.66
2023-01-29T01:20:36.445Z,101814.81
2023-01-29T01:23:04.297Z,101810.59
2023-01-29T01:25:31.720Z,101804.59
2023-01-29T01:28:02.901Z,101810.50
2023-01-29T01:30:30.165Z,101795.56
2023-01-29T01:32:59.412Z,101802.75
2023-01-29T01:35:26.898Z,101799.03
2023-01-29T01:37:54.598Z,101819.25
2023-01-29T01:40:25.520Z,101815.25
2023-01-29T01:43:02.505Z,101820.16
2023-01-29T01:45:37.564Z,101818.72
2023-01-29T01:48:22.008Z,101816.22
2023-01-29T01:51:03.413Z,101818.28
2023-01-29T01:53:49.997Z,101813.50
2023-01-29T01:56:27.330Z,101825.78
2023-01-29T01:58:59.488Z,101824.47
2023-01-29T02:01:30.394Z,101824.78
2023-01-29T02:04:33.032Z,101820.63
2023-01-29T02:07:24.041Z,101801.59
2023-01-29T02:10:01.876Z,101801.19
2023-01-29T02:12:31.427Z,101794.25
2023-01-29T02:15:01.162Z,101792.72
2023-01-29T02:17:28.483Z,101789.84
2023-01-29T02:20:20.945Z,101780.19
2023-01-29T02:23:33.482Z,101785.81
2023-01-29T02:27:05.695Z,101779.78
2023-01-29T02:30:03.401Z,101783.44
2023-01-29T02:33:09.457Z,101775.69
2023-01-29T02:35:37.859Z,101776.03
2023-01-29T02:38:14.325Z,101762.84
2023-01-29T02:41:06.153Z,101766.75
2023-01-29T02:43:49.542Z,101759.63
2023-01-29T02:46:43.686Z,101757.56
2023-01-29T02:49:22.351Z,101764.41
2023-01-29T02:52:13.794Z,101762.94
2023-01-29T02:54:48.976Z,101749.53
2023-01-29T02:57:25.518Z,101735.91
2023-01-29T03:00:07.083Z,101740.13
2023-01-29T03:02:52.390Z,101736.56
2023-01-29T03:05:32.962Z,101726.78
2023-01-29T03:08:10.247Z,101733.84
2023-01-29T03:10:54.301Z,101724.53
2023-01-29T03:13:25.087Z,101721.06
2023-01-29T03:16:14.441Z,101717.56
2023-01-29T03:18:51.041Z,101712.19
2023-01-29T03:21:51.619Z,101708.91
2023-01-29T03:24:51.329Z,101707.22
2023-01-29T03:27:42.282Z,101708.34
2023-01-29T03:30:32.873Z,101702.78
2023-01-29T03:33:05.420Z,101689.56
2023-01-29T03:35:40.475Z,101693.97
2023-01-29T03:38:11.184Z,101700.88
2023-01-29T03:41:01.936Z,101696.94
2023-01-29T03:43:40.427Z,101700.47
2023-01-29T03:46:35.529Z,101684.16
2023-01-29T03:49:42.591Z,101691.69
2023-01-29T03:52:17.941Z,101690.72
2023-01-29T03:55:11.873Z,101680.81
2023-01-29T03:58:16.505Z,101683.00
2023-01-29T04:01:05.147Z,101683.19
2023-01-29T04:04:15.231Z,101682.25
2023-01-29T04:06:46.016Z,101671.09
2023-01-29T04:09:15.124Z,101678.44
2023-01-29T04:11:50.301Z,101669.84
2023-01-29T04:14:18.537Z,101666.53
2023-01-29T04:16:54.387Z,101658.84
2023-01-29T04:19:21.714Z,101670.28
2023-01-29T04:21:51.065Z,101663.84
2023-01-29T04:24:18.404Z,101665.31
2023-01-29T04:27:21.361Z,101651.25
2023-01-29T04:30:18.711Z,101653.94
2023-01-29T04:33:06.745Z,101652.13
2023-01-29T04:36:12.134Z,101651.81
2023-01-29T04:38:52.349Z,101646.19
2023-01-29T04:41:50.421Z,101657.78
2023-01-29T04:44:23.491Z,101657.44
2023-01-29T04:47:01.802Z,101665.38
2023-01-29T04:49:47.886Z,101658.72
2023-01-29T04:52:46.627Z,101651.91
2023-01-29T04:55:36.114Z,101647.88
2023-01-29T05:00:54.375Z,101658.97
2023-01-29T05:03:27.745Z,101651.72
2023-01-29T05:05:58.122Z,101648.19
2023-01-29T05:08:28.969Z,101654.59
2023-01-29T05:11:00.476Z,101655.84
2023-01-29T05:13:31.851Z,101646.44
2023-01-29T05:16:50.915Z,101631.72
2023-01-29T05:19:18.240Z,101636.31
2023-01-29T05:21:49.736Z,101632.38
2023-01-29T05:24:24.174Z,101644.81
2023-01-29T05:27:13.145Z,101637.91
2023-01-29T05:29:47.349Z,101654.81
2023-01-29T05:32:15.883Z,101642.59
2023-01-29T05:34:43.041Z,101647.59
2023-01-29T05:37:10.918Z,101639.28
2023-01-29T05:39:40.628Z,101647.41
2023-01-29T05:42:07.746Z,101639.19
2023-01-29T05:44:34.841Z,101644.56
2023-01-29T05:47:02.929Z,101642.84
2023-01-29T05:49:32.294Z,101644.38
2023-01-29T05:51:59.504Z,101630.50
2023-01-29T05:54:26.693Z,101638.47
2023-01-29T05:56:53.841Z,101651.56
2023-01-29T05:59:21.088Z,101648.63
2023-01-29T06:01:48.387Z,101659.34
2023-01-29T06:04:15.709Z,101645.09
2023-01-29T06:06:43.015Z,101653.38
2023-01-29T06:09:12.017Z,101655.31
2023-01-29T06:11:39.872Z,101660.56
2023-01-29T06:14:09.472Z,101655.00
2023-01-29T06:16:41.197Z,101656.59
2023-01-29T06:19:08.420Z,101655.88
2023-01-29T06:21:35.820Z,101657.56
2023-01-29T06:24:03.262Z,101666.53
2023-01-29T06:26:30.558Z,101669.03
2023-01-29T06:28:57.769Z,101676.50
2023-01-29T06:31:37.848Z,101666.91
2023-01-29T06:34:07.405Z,101663.63
2023-01-29T06:36:35.066Z,101657.25
2023-01-29T06:39:03.451Z,101649.66
2023-01-29T06:41:30.528Z,101648.88
2023-01-29T06:44:00.203Z,101650.72
2023-01-29T06:46:27.560Z,101645.00
2023-01-29T06:48:54.764Z,101647.22
2023-01-29T06:51:23.042Z,101630.81
2023-01-29T06:53:50.347Z,101629.97
2023-01-29T06:56:21.153Z,101623.31
2023-01-29T06:58:48.383Z,101619.72
2023-01-29T07:01:33.436Z,101626.38
2023-01-29T07:04:03.583Z,101635.88
2023-01-29T07:06:31.579Z,101647.03
2023-01-29T07:08:58.801Z,101643.19
2023-01-29T07:11:26.163Z,101637.94
2023-01-29T07:13:53.869Z,101628.81
2023-01-29T07:16:21.470Z,101642.34
2023-01-29T07:18:48.730Z,101633.66
2023-01-29T07:21:16.065Z,101632.09
2023-01-29T07:23:43.177Z,101628.53
2023-01-29T07:26:13.615Z,101631.81
2023-01-29T07:28:41.532Z,101630.53
2023-01-29T07:31:11.674Z,101636.72
2023-01-29T07:33:38.803Z,101632.13
2023-01-29T07:36:10.816Z,101634.25
2023-01-29T07:38:38.134Z,101638.56
2023-01-29T07:41:05.611Z,101645.66
2023-01-29T07:43:33.354Z,101633.38
2023-01-29T07:46:05.437Z,101640.94
2023-01-29T07:48:32.804Z,101635.31
2023-01-29T07:51:00.223Z,101629.69
2023-01-29T07:53:28.673Z,101631.56
2023-01-29T07:55:56.363Z,101627.41
2023-01-29T07:58:23.605Z,101618.00
2023-01-29T08:00:51.022Z,101614.59
2023-01-29T08:03:22.691Z,101609.44
2023-01-29T08:05:50.090Z,101613.97
2023-01-29T08:08:17.254Z,101608.19
2023-01-29T08:10:44.752Z,101602.13
2023-01-29T08:13:14.200Z,101597.91
2023-01-29T08:15:45.223Z,101596.22
2023-01-29T08:18:15.287Z,101586.91
2023-01-29T08:20:42.444Z,101582.72
2023-01-29T08:23:16.443Z,101564.31
2023-01-29T08:25:43.822Z,101565.44
2023-01-29T08:28:12.461Z,101565.91
2023-01-29T08:30:40.045Z,101563.63
2023-01-29T08:33:10.149Z,101562.09
2023-01-29T08:35:38.716Z,101562.56
2023-01-29T08:38:06.345Z,101553.25
2023-01-29T08:40:35.026Z,101554.25
2023-01-29T08:43:09.143Z,101558.59
2023-01-29T08:45:44.468Z,101560.53
2023-01-29T08:48:12.124Z,101557.13
2023-01-29T08:50:39.407Z,101559.56
2023-01-29T08:53:10.130Z,101562.91
2023-01-29T08:55:39.513Z,101562.72
2023-01-29T08:58:09.192Z,101566.63
2023-01-29T09:00:39.365Z,101562.41
2023-01-29T09:03:08.111Z,101562.88
2023-01-29T09:05:37.776Z,101570.41
2023-01-29T09:08:06.340Z,101569.19
2023-01-29T09:10:33.863Z,101578.47
2023-01-29T09:13:01.589Z,101576.78
2023-01-29T09:15:31.746Z,101581.34
2023-01-29T09:18:05.436Z,101576.16
2023-01-29T09:20:33.188Z,101589.63
2023-01-29T09:23:07.114Z,101585.50
2023-01-29T09:25:34.319Z,101589.78
2023-01-29T09:28:01.565Z,101584.53
2023-01-29T09:30:28.707Z,101577.38
2023-01-29T09:33:00.015Z,101582.56
2023-01-29T09:35:27.140Z,101573.38
2023-01-29T09:37:54.323Z,101583.63
2023-01-29T09:40:32.980Z,101578.28
2023-01-29T09:43:27.333Z,101568.59
2023-01-29T09:46:02.086Z,101572.63
2023-01-29T09:48:33.967Z,101565.31
2023-01-29T09:51:07.582Z,101549.28
2023-01-29T09:53:54.445Z,101563.38
2023-01-29T09:56:29.575Z,101552.78
2023-01-29T09:59:01.618Z,101546.13
2023-01-29T10:01:56.152Z,101545.56
2023-01-29T10:05:22.024Z,101546.59
2023-01-29T10:08:23.721Z,101536.75
2023-01-29T10:11:21.732Z,101517.00
2023-01-29T10:13:58.814Z,101525.50
2023-01-29T10:17:04.472Z,101514.50
2023-01-29T10:19:46.431Z,101518.59
2023-01-29T10:22:53.651Z,101514.00
2023-01-29T10:25:23.015Z,101490.16
2023-01-29T10:28:00.333Z,101495.47
2023-01-29T10:30:41.247Z,101494.31
2023-01-29T10:33:21.266Z,101482.22
2023-01-29T10:35:56.889Z,101465.56
2023-01-29T10:38:35.864Z,101472.28
2023-01-29T10:41:17.787Z,101462.38
2023-01-29T10:43:47.795Z,101474.66
2023-01-29T10:46:48.292Z,101461.72
2023-01-29T10:50:07.068Z,101466.69
2023-01-29T10:52:46.189Z,101464.31
2023-01-29T10:55:43.657Z,101460.38
2023-01-29T10:58:37.771Z,101466.78
2023-01-29T11:01:04.895Z,101464.50
2023-01-29T11:03:36.874Z,101455.78
2023-01-29T11:06:37.756Z,101443.63
2023-01-29T11:09:33.087Z,101438.88
2023-01-29T11:12:03.108Z,101445.19
2023-01-29T11:14:43.246Z,101453.19
2023-01-29T11:17:19.189Z,101429.59
2023-01-29T11:19:50.023Z,101430.75
2023-01-29T11:22:26.687Z,101427.66
2023-01-29T11:25:16.867Z,101425.34
2023-01-29T11:27:50.163Z,101434.56
2023-01-29T11:30:25.652Z,101438.81
2023-01-29T11:33:10.215Z,101438.56
2023-01-29T11:35:37.795Z,101428.47
2023-01-29T11:38:31.693Z,101424.97
2023-01-29T11:41:18.935Z,101417.03
2023-01-29T11:43:46.153Z,101414.75
2023-01-29T11:46:15.988Z,101402.47
2023-01-29T11:48:58.938Z,101399.13
2023-01-29T11:51:39.167Z,101401.72
2023-01-29T11:54:06.654Z,101403.78
2023-01-29T11:56:43.641Z,101389.44
2023-01-29T11:59:48.914Z,101381.44
2023-01-29T12:02:39.015Z,101388.94
2023-01-29T12:05:22.266Z,101375.38
2023-01-29T12:07:52.676Z,101379.78
2023-01-29T12:10:39.401Z,101379.34
2023-01-29T12:13:12.119Z,101375.00
2023-01-29T12:15:41.910Z,101357.50
2023-01-29T12:18:37.679Z,101360.81
2023-01-29T12:21:27.984Z,101356.25
2023-01-29T12:24:01.619Z,101358.00
2023-01-29T12:26:44.865Z,101358.44
2023-01-29T12:29:53.045Z,101363.25
2023-01-29T12:33:00.805Z,101360.47
2023-01-29T12:35:50.233Z,101357.31
2023-01-29T12:38:20.941Z,101360.75
2023-01-29T12:40:59.469Z,101348.53
2023-01-29T12:43:51.811Z,101349.59
2023-01-29T12:46:38.629Z,101342.09
2023-01-29T12:49:15.205Z,101342.16
2023-01-29T12:51:59.264Z,101348.28
2023-01-29T12:54:46.186Z,101341.34
2023-01-29T12:57:46.125Z,101341.69
2023-01-29T13:00:15.063Z,101324.91
2023-01-29T13:03:02.064Z,101328.59
2023-01-29T13:05:44.580Z,101328.78
2023-01-29T13:08:29.432Z,101322.97
2023-01-29T13:11:01.007Z,101321.34
2023-01-29T13:13:43.750Z,101309.28
2023-01-29T13:16:15.897Z,101305.13
2023-01-29T13:18:56.483Z,101308.41
2023-01-29T13:21:29.543Z,101312.25
2023-01-29T13:24:16.039Z,101311.06
2023-01-29T13:26:48.085Z,101310.59
2023-01-29T13:29:34.279Z,101306.59
2023-01-29T13:32:04.733Z,101303.97
2023-01-29T13:34:44.097Z,101306.72
2023-01-29T13:37:31.644Z,101297.44
2023-01-29T13:40:01.241Z,101295.22
2023-01-29T13:42:49.729Z,101298.50
2023-01-29T13:45:43.378Z,101302.91
2023-01-29T13:48:37.058Z,101288.44
2023-01-29T13:51:15.731Z,101281.66
2023-01-29T13:54:00.913Z,101275.09
2023-01-29T13:56:34.143Z,101276.75
2023-01-29T13:59:06.688Z,101276.22
2023-01-29T14:01:48.944Z,101270.94
2023-01-29T14:04:31.029Z,101271.31
2023-01-29T14:07:00.099Z,101268.63
2023-01-29T14:09:39.253Z,101266.06
2023-01-29T14:12:21.648Z,101263.16
2023-01-29T14:14:48.632Z,101259.50
2023-01-29T14:17:17.850Z,101283.16
2023-01-29T14:20:27.673Z,101280.50
2023-01-29T14:23:01.555Z,101273.91
2023-01-29T14:25:35.452Z,101265.94
2023-01-29T14:28:13.408Z,101277.84
2023-01-29T14:30:45.975Z,101281.03
2023-01-29T14:33:43.613Z,101266.97
2023-01-29T14:36:14.879Z,101263.66
2023-01-29T14:38:51.881Z,101262.28
2023-01-29T14:41:32.816Z,101265.03
2023-01-29T14:44:44.694Z,101255.97
2023-01-29T14:47:35.681Z,101265.75
2023-01-29T14:50:29.140Z,101273.34
2023-01-29T14:53:33.804Z,101269.53
2023-01-29T14:56:34.943Z,101271.53
2023-01-29T14:59:22.940Z,101269.91
2023-01-29T15:01:58.179Z,101267.25
2023-01-29T15:04:46.159Z,101253.06
2023-01-29T15:07:26.328Z,101257.25
2023-01-29T15:10:21.574Z,101254.06
2023-01-29T15:13:04.649Z,101248.75
2023-01-29T15:15:33.983Z,101252.13
2023-01-29T15:18:13.497Z,101254.75
2023-01-29T15:20:42.800Z,101249.13
2023-01-29T15:23:33.797Z,101238.88
2023-01-29T15:26:05.457Z,101235.69
2023-01-29T15:28:35.469Z,101234.19
2023-01-29T15:31:13.462Z,101232.88
2023-01-29T15:33:45.739Z,101224.88
2023-01-29T15:36:31.383Z,101229.16
2023-01-29T15:39:21.585Z,101224.59
2023-01-29T15:42:07.231Z,101218.63
2023-01-29T15:44:35.168Z,101214.94
2023-01-29T15:47:02.814Z,101215.41
2023-01-29T15:49:35.272Z,101203.06
2023-01-29T15:52:17.283Z,101210.94
2023-01-29T15:54:45.448Z,101207.44
2023-01-29T15:57:41.625Z,101205.53
2023-01-29T16:00:23.336Z,101195.06
2023-01-29T16:02:51.263Z,101184.34
2023-01-29T16:05:30.780Z,101190.25
2023-01-29T16:07:59.953Z,101189.97
2023-01-29T16:10:32.639Z,101187.56
2023-01-29T16:13:00.826Z,101180.25
2023-01-29T16:15:38.144Z,101182.50
2023-01-29T16:18:41.097Z,101184.38
2023-01-29T16:21:41.507Z,101170.47
2023-01-29T16:24:13.504Z,101171.50
2023-01-29T16:26:47.040Z,101173.13
2023-01-29T16:29:24.050Z,101170.19
2023-01-29T16:32:00.410Z,101162.06
2023-01-29T16:34:34.959Z,101169.25
2023-01-29T16:37:09.485Z,101170.09
2023-01-29T16:39:43.768Z,101157.72
2023-01-29T16:42:17.389Z,101165.09
2023-01-29T16:45:04.370Z,101158.22
2023-01-29T16:47:32.758Z,101163.88
2023-01-29T16:50:01.119Z,101154.94
2023-01-29T16:52:35.987Z,101151.34
2023-01-29T16:55:12.817Z,101147.06
2023-01-29T16:57:42.113Z,101140.03
2023-01-29T17:00:29.635Z,101145.38
2023-01-29T17:03:04.428Z,101141.22
2023-01-29T17:05:37.007Z,101153.56
2023-01-29T17:08:06.058Z,101145.53
2023-01-29T17:10:34.267Z,101142.13
2023-01-29T17:13:07.706Z,101139.75
2023-01-29T17:15:43.595Z,101147.97
2023-01-29T17:18:25.686Z,101142.22
2023-01-29T17:20:53.144Z,101137.69
2023-01-29T17:23:21.533Z,101152.13
2023-01-29T17:25:49.568Z,101125.28
2023-01-29T17:28:19.292Z,101129.22
2023-01-29T17:30:56.621Z,101119.47
2023-01-29T17:33:30.189Z,101122.78
2023-01-29T17:35:57.360Z,101118.97
2023-01-29T17:38:26.860Z,101109.41
2023-01-29T17:41:04.526Z,101105.53
2023-01-29T17:43:34.660Z,101104.31
2023-01-29T17:46:02.248Z,101094.25
2023-01-29T17:48:30.853Z,101103.34
2023-01-29T17:51:14.956Z,101102.00
2023-01-29T17:53:45.880Z,101096.22
2023-01-29T17:56:18.812Z,101082.94
2023-01-29T17:58:46.047Z,101087.97
2023-01-29T18:01:13.209Z,101088.53
2023-01-29T18:03:40.876Z,101083.06
2023-01-29T18:06:10.020Z,101079.75
2023-01-29T18:08:39.406Z,101074.84
2023-01-29T18:11:08.983Z,101079.63
2023-01-29T18:13:36.300Z,101071.81
2023-01-29T18:16:05.839Z,101069.53
2023-01-29T18:18:33.096Z,101069.34
2023-01-29T18:21:00.270Z,101068.19
2023-01-29T18:23:29.595Z,101061.88
2023-01-29T18:25:57.924Z,101056.97
2023-01-29T18:28:25.443Z,101053.22
2023-01-29T18:30:53.226Z,101046.44
2023-01-29T18:33:20.477Z,101049.59
2023-01-29T18:35:48.400Z,101027.13
2023-01-29T18:38:16.282Z,101021.72
2023-01-29T18:40:43.896Z,101012.53
2023-01-29T18:43:11.104Z,101017.91
2023-01-29T18:45:38.488Z,101014.91
2023-01-29T18:48:06.113Z,101010.97
2023-01-29T18:50:34.222Z,101010.50
2023-01-29T18:53:04.514Z,101014.94
2023-01-29T18:55:31.770Z,101005.91
2023-01-29T18:58:24.645Z,101005.66
2023-01-29T19:00:51.030Z,100995.53
2023-01-29T19:03:18.970Z,100988.38
2023-01-29T19:05:46.170Z,100983.75
2023-01-29T19:08:13.499Z,100980.91
2023-01-29T19:10:44.137Z,100979.75
2023-01-29T19:13:11.303Z,100990.53
2023-01-29T19:15:44.925Z,100977.94
2023-01-29T19:18:14.639Z,100971.44
2023-01-29T19:20:42.334Z,100964.78
2023-01-29T19:23:10.782Z,100957.09
2023-01-29T19:25:41.276Z,100963.16
2023-01-29T19:28:09.075Z,100959.91
2023-01-29T19:30:36.736Z,100958.31
2023-01-29T19:33:04.288Z,100950.88
2023-01-29T19:35:32.722Z,100942.94
2023-01-29T19:38:01.301Z,100943.66
2023-01-29T19:40:29.804Z,100936.31
2023-01-29T19:42:59.556Z,100944.16
2023-01-29T19:45:48.905Z,100942.31
2023-01-29T19:48:24.035Z,100939.03
2023-01-29T19:51:04.467Z,100935.97
2023-01-29T19:53:32.388Z,100927.97
2023-01-29T19:56:11.895Z,100927.84
2023-01-29T19:58:39.314Z,100925.97
2023-01-29T20:01:31.705Z,100929.44
2023-01-29T20:03:58.996Z,100921.63
2023-01-29T20:06:31.022Z,100910.84
2023-01-29T20:08:58.644Z,100926.88
2023-01-29T20:11:25.823Z,100907.81
2023-01-29T20:13:55.901Z,100903.47
2023-01-29T20:16:25.196Z,100901.16
2023-01-29T20:18:52.979Z,100897.50
2023-01-29T20:21:22.124Z,100899.59
2023-01-29T20:23:51.231Z,100893.81
2023-01-29T20:26:19.836Z,100894.38
2023-01-29T20:28:50.094Z,100895.44
2023-01-29T20:31:17.649Z,100891.94
2023-01-29T20:33:49.776Z,100875.31
2023-01-29T20:36:17.107Z,100877.66
2023-01-29T20:38:44.842Z,100856.19
2023-01-29T20:41:17.859Z,100863.19
2023-01-29T20:43:47.058Z,100856.84
2023-01-29T20:46:14.637Z,100859.56
2023-01-29T20:48:42.564Z,100860.69
2023-01-29T20:51:17.202Z,100848.16
2023-01-29T20:53:46.828Z,100834.50
2023-01-29T20:56:36.824Z,100831.22
2023-01-29T20:59:07.715Z,100834.34
2023-01-29T21:01:35.368Z,100809.91
2023-01-29T21:04:02.914Z,100822.84
2023-01-29T21:06:32.635Z,100801.28
2023-01-29T21:08:59.846Z,100804.84
2023-01-29T21:11:27.062Z,100806.94
2023-01-29T21:13:57.841Z,100803.38
2023-01-29T21:16:31.449Z,100790.56
2023-01-29T21:18:59.434Z,100784.91
2023-01-29T21:21:27.123Z,100776.28
2023-01-29T21:23:58.306Z,100764.31
2023-01-29T21:26:25.550Z,100774.56
2023-01-29T21:28:55.157Z,100763.19
2023-01-29T21:31:22.546Z,100773.31
2023-01-29T21:33:49.723Z,100768.22
2023-01-29T21:36:18.793Z,100771.56
2023-01-29T21:38:46.011Z,100749.53
2023-01-29T21:41:13.548Z,100777.09
2023-01-29T21:43:40.679Z,100742.84
2023-01-29T21:46:12.308Z,100727.00
2023-01-29T21:48:40.349Z,100753.47
2023-01-29T21:51:08.084Z,100749.25
2023-01-29T21:53:36.753Z,100732.38
2023-01-29T21:56:05.884Z,100733.84
2023-01-29T21:58:33.128Z,100717.63
2023-01-29T22:01:36.128Z,100719.75
2023-01-29T22:03:54.318Z,100697.59
2023-01-29T22:06:21.887Z,100708.28
2023-01-29T22:08:50.211Z,100697.72
2023-01-29T22:11:17.817Z,100704.97
2023-01-29T22:13:47.208Z,100687.41
2023-01-29T22:16:16.868Z,100702.69
2023-01-29T22:18:44.019Z,100683.13
2023-01-29T22:21:11.086Z,100681.19
2023-01-29T22:23:40.423Z,100685.59
2023-01-29T22:26:09.939Z,100688.53
2023-01-29T22:28:39.844Z,100687.63
2023-01-29T22:31:07.056Z,100673.03
2023-01-29T22:33:36.650Z,100666.81
2023-01-29T22:36:04.538Z,100639.53
2023-01-29T22:38:31.668Z,100649.75
2023-01-29T22:41:01.250Z,100641.28
2023-01-29T22:43:29.369Z,100634.72
2023-01-29T22:45:56.605Z,100612.56
2023-01-29T22:48:24.048Z,100622.38
2023-01-29T22:51:09.538Z,100614.84
2023-01-29T22:53:40.640Z,100617.84
2023-01-29T22:56:11.292Z,100608.13
2023-01-29T22:58:43.967Z,100605.16
2023-01-29T23:01:13.433Z,100594.03
2023-01-29T23:03:43.004Z,100583.47
2023-01-29T23:06:10.366Z,100586.38
2023-01-29T23:08:37.504Z,100578.81
2023-01-29T23:11:17.818Z,100551.72
2023-01-29T23:13:49.564Z,100552.31
2023-01-29T23:16:19.054Z,100544.38
2023-01-29T23:18:50.089Z,100539.75
2023-01-29T23:21:20.858Z,100532.50
2023-01-29T23:23:48.608Z,100527.44
2023-01-29T23:26:34.952Z,100523.97
2023-01-29T23:29:03.884Z,100521.88
2023-01-29T23:31:32.067Z,100509.56
2023-01-29T23:33:59.297Z,100503.09
2023-01-29T23:36:27.047Z,100491.81
2023-01-29T23:38:54.164Z,100486.44
2023-01-29T23:41:21.597Z,100478.03
2023-01-29T23:43:53.033Z,100465.75
2023-01-29T23:46:20.231Z,100449.47
2023-01-29T23:48:47.369Z,100458.19
2023-01-29T23:51:14.485Z,100444.00
2023-01-29T23:53:41.737Z,100461.50
2023-01-29T23:56:10.708Z,100456.75
2023-01-29T23:58:37.923Z,100431.03
